createdAt,value
2017-08-19T00:01:09.948Z,75.20
2017-08-19T00:03:36.704Z,75.30
2017-08-19T00:06:03.436Z,75.20
2017-08-19T00:08:30.154Z,75.20
2017-08-19T00:10:56.926Z,75.10
2017-08-19T00:13:23.617Z,75.00
2017-08-19T00:15:50.351Z,75.10
2017-08-19T00:18:17.825Z,74.90
2017-08-19T00:20:44.994Z,74.80
2017-08-19T00:23:11.686Z,75.00
2017-08-19T00:25:38.446Z,75.00
2017-08-19T00:28:05.148Z,74.90
2017-08-19T00:30:31.845Z,74.80
2017-08-19T00:32:58.583Z,74.80
2017-08-19T00:35:25.295Z,74.70
2017-08-19T00:37:52.018Z,74.80
2017-08-19T00:40:18.703Z,74.60
2017-08-19T00:42:46.051Z,74.80
2017-08-19T00:45:13.500Z,74.80
2017-08-19T00:47:40.244Z,74.80
2017-08-19T00:50:06.945Z,74.70
2017-08-19T00:52:33.654Z,74.50
2017-08-19T00:55:00.386Z,74.50
2017-08-19T00:57:27.389Z,74.50
2017-08-19T00:59:54.114Z,74.40
2017-08-19T01:02:20.810Z,74.30
2017-08-19T01:04:47.536Z,74.40
2017-08-19T01:07:14.239Z,74.40
2017-08-19T01:09:40.966Z,74.40
2017-08-19T01:12:07.657Z,74.50
2017-08-19T01:14:34.398Z,74.50
2017-08-19T01:17:01.122Z,74.40
2017-08-19T01:19:27.838Z,74.30
2017-08-19T01:21:54.572Z,74.20
2017-08-19T01:24:21.278Z,74.30
2017-08-19T01:26:48.030Z,74.10
2017-08-19T01:29:14.751Z,74.00
2017-08-19T01:31:41.511Z,74.30
2017-08-19T01:34:08.218Z,74.00
2017-08-19T01:36:34.976Z,74.10
2017-08-19T01:39:01.711Z,74.10
2017-08-19T01:41:28.422Z,74.00
2017-08-19T01:43:55.159Z,73.70
2017-08-19T01:46:21.857Z,73.70
2017-08-19T01:48:48.595Z,73.90
2017-08-19T01:51:16.031Z,73.70
2017-08-19T01:53:42.795Z,73.80
2017-08-19T01:56:09.511Z,73.60
2017-08-19T01:58:36.270Z,73.50
2017-08-19T02:01:02.970Z,73.80
2017-08-19T02:03:30.323Z,73.50
2017-08-19T02:05:57.023Z,73.40
2017-08-19T02:08:23.731Z,73.70
2017-08-19T02:10:51.276Z,73.40
2017-08-19T02:13:17.992Z,73.40
2017-08-19T02:15:44.718Z,73.40
2017-08-19T02:18:12.072Z,73.30
2017-08-19T02:20:38.842Z,73.40
2017-08-19T02:23:05.546Z,73.50
2017-08-19T02:25:32.295Z,73.50
2017-08-19T02:27:59.019Z,73.50
2017-08-19T02:30:25.755Z,73.30
2017-08-19T02:32:52.454Z,73.20
2017-08-19T02:38:08.003Z,73.10
2017-08-19T02:40:34.762Z,73.00
2017-08-19T02:43:02.064Z,73.20
2017-08-19T02:45:28.772Z,73.10
2017-08-19T02:47:55.511Z,73.20
2017-08-19T02:50:22.935Z,72.80
2017-08-19T02:52:49.670Z,73.10
2017-08-19T02:55:17.752Z,72.90
2017-08-19T02:57:44.489Z,73.10
2017-08-19T03:00:11.232Z,72.80
2017-08-19T03:02:37.982Z,72.80
2017-08-19T03:07:53.510Z,72.70
2017-08-19T03:10:20.214Z,72.60
2017-08-19T03:12:47.775Z,72.70
2017-08-19T03:15:14.551Z,72.60
2017-08-19T03:17:41.263Z,72.70
2017-08-19T03:20:08.767Z,72.70
2017-08-19T03:22:36.195Z,72.80
2017-08-19T03:25:02.923Z,72.60
2017-08-19T03:27:29.642Z,72.80
2017-08-19T03:29:57.093Z,72.60
2017-08-19T03:32:23.851Z,72.70
2017-08-19T03:37:39.683Z,72.40
2017-08-19T03:40:06.425Z,72.50
2017-08-19T03:42:33.127Z,72.40
2017-08-19T03:44:59.826Z,72.20
2017-08-19T03:47:27.323Z,72.30
2017-08-19T03:49:54.042Z,72.30
2017-08-19T03:52:20.769Z,72.20
2017-08-19T03:54:47.454Z,72.20
2017-08-19T03:57:14.898Z,72.20
2017-08-19T03:59:41.631Z,72.10
2017-08-19T04:02:08.352Z,72.30
2017-08-19T04:04:35.078Z,72.10
2017-08-19T04:07:01.812Z,72.00
2017-08-19T04:09:28.545Z,72.10
2017-08-19T04:11:55.240Z,72.10
2017-08-19T04:14:21.986Z,72.00
2017-08-19T04:16:49.402Z,72.10
2017-08-19T04:19:16.120Z,72.00
2017-08-19T04:21:42.842Z,71.90
2017-08-19T04:24:09.566Z,71.90
2017-08-19T04:26:36.286Z,71.80
2017-08-19T04:29:03.727Z,71.80
2017-08-19T04:31:30.464Z,71.70
2017-08-19T04:33:57.172Z,71.60
2017-08-19T04:36:23.902Z,71.80
2017-08-19T04:38:50.607Z,71.90
2017-08-19T04:41:17.318Z,71.60
2017-08-19T04:43:44.058Z,71.70
2017-08-19T04:46:10.755Z,71.90
2017-08-19T04:48:37.465Z,71.60
2017-08-19T04:51:04.170Z,71.70
2017-08-19T04:53:30.926Z,71.70
2017-08-19T04:55:57.673Z,71.50
2017-08-19T04:58:26.555Z,71.60
2017-08-19T05:00:53.254Z,71.70
2017-08-19T05:03:19.966Z,71.50
2017-08-19T05:05:50.418Z,71.40
2017-08-19T05:08:17.127Z,71.40
2017-08-19T05:10:43.874Z,71.70
2017-08-19T05:13:10.606Z,71.70
2017-08-19T05:15:37.342Z,71.70
2017-08-19T05:18:04.054Z,71.40
2017-08-19T05:20:30.801Z,71.50
2017-08-19T05:22:57.493Z,71.50
2017-08-19T05:25:24.219Z,71.40
2017-08-19T05:27:50.963Z,71.50
2017-08-19T05:30:17.670Z,71.50
2017-08-19T05:32:44.455Z,71.40
2017-08-19T05:35:11.159Z,71.50
2017-08-19T05:37:37.910Z,71.50
2017-08-19T05:40:04.622Z,71.50
2017-08-19T05:42:31.310Z,71.40
2017-08-19T05:44:58.803Z,71.30
2017-08-19T05:47:25.538Z,70.90
2017-08-19T05:49:52.838Z,71.20
2017-08-19T05:52:19.518Z,71.40
2017-08-19T05:54:46.246Z,71.20
2017-08-19T05:57:12.998Z,71.20
2017-08-19T05:59:39.735Z,71.20
2017-08-19T06:02:06.466Z,71.20
2017-08-19T06:04:33.195Z,71.40
2017-08-19T06:06:59.922Z,71.00
2017-08-19T06:09:26.626Z,71.20
2017-08-19T06:11:53.371Z,71.20
2017-08-19T06:14:20.075Z,71.20
2017-08-19T06:16:47.446Z,71.00
2017-08-19T06:19:14.174Z,71.20
2017-08-19T06:21:40.910Z,71.20
2017-08-19T06:24:08.026Z,71.00
2017-08-19T06:26:34.731Z,71.00
2017-08-19T06:29:01.452Z,71.20
2017-08-19T06:31:28.206Z,71.20
2017-08-19T06:33:54.934Z,71.00
2017-08-19T06:36:21.627Z,70.60
2017-08-19T06:38:48.883Z,70.90
2017-08-19T06:41:15.618Z,71.20
2017-08-19T06:43:42.325Z,70.70
2017-08-19T06:46:09.071Z,70.50
2017-08-19T06:48:35.788Z,70.80
2017-08-19T06:51:02.522Z,70.50
2017-08-19T06:53:29.215Z,70.80
2017-08-19T06:55:55.958Z,70.60
2017-08-19T06:58:22.715Z,70.80
2017-08-19T07:00:49.443Z,71.00
2017-08-19T07:03:16.146Z,71.00
2017-08-19T07:05:42.874Z,71.00
2017-08-19T07:08:09.574Z,71.00
2017-08-19T07:10:43.930Z,70.90
2017-08-19T07:13:10.606Z,70.90
2017-08-19T07:15:37.355Z,71.00
2017-08-19T07:18:04.082Z,70.90
2017-08-19T07:20:30.768Z,70.80
2017-08-19T07:22:57.494Z,70.90
2017-08-19T07:25:24.238Z,70.70
2017-08-19T07:27:50.967Z,70.80
2017-08-19T07:30:17.668Z,70.90
2017-08-19T07:32:44.409Z,70.70
2017-08-19T07:37:59.530Z,70.80
2017-08-19T07:40:26.954Z,71.00
2017-08-19T07:42:53.687Z,71.00
2017-08-19T07:45:20.444Z,70.90
2017-08-19T07:47:47.202Z,70.90
2017-08-19T07:50:13.938Z,71.00
2017-08-19T07:52:40.634Z,71.20
2017-08-19T07:55:07.366Z,70.90
2017-08-19T07:57:34.105Z,70.90
2017-08-19T08:00:00.866Z,70.80
2017-08-19T08:02:27.595Z,71.00
2017-08-19T08:04:54.437Z,71.00
2017-08-19T08:07:21.144Z,71.00
2017-08-19T08:09:47.898Z,71.20
2017-08-19T08:12:14.618Z,71.20
2017-08-19T08:14:41.321Z,71.20
2017-08-19T08:17:08.043Z,71.20
2017-08-19T08:19:34.751Z,71.20
2017-08-19T08:22:01.490Z,71.00
2017-08-19T08:24:28.238Z,70.90
2017-08-19T08:26:54.978Z,70.90
2017-08-19T08:29:21.750Z,71.20
2017-08-19T08:31:48.491Z,71.20
2017-08-19T08:34:15.178Z,71.20
2017-08-19T08:36:41.874Z,71.20
2017-08-19T08:39:08.606Z,71.20
2017-08-19T08:41:35.301Z,71.00
2017-08-19T08:44:02.019Z,71.00
2017-08-19T08:46:28.727Z,71.00
2017-08-19T08:48:55.458Z,71.20
2017-08-19T08:51:22.195Z,71.20
2017-08-19T08:53:48.938Z,71.20
2017-08-19T08:56:15.646Z,71.00
2017-08-19T08:58:43.010Z,71.00
2017-08-19T09:01:09.732Z,71.20
2017-08-19T09:03:36.510Z,71.00
2017-08-19T09:06:03.262Z,71.00
2017-08-19T09:08:29.985Z,71.20
2017-08-19T09:10:56.777Z,71.20
2017-08-19T09:13:23.485Z,71.20
2017-08-19T09:15:50.214Z,71.20
2017-08-19T09:18:16.911Z,71.00
2017-08-19T09:20:44.290Z,70.90
2017-08-19T09:23:10.982Z,71.20
2017-08-19T09:25:37.714Z,70.80
2017-08-19T09:28:04.443Z,71.20
2017-08-19T09:30:31.147Z,71.20
2017-08-19T09:32:57.876Z,71.20
2017-08-19T09:38:14.271Z,70.80
2017-08-19T09:40:40.971Z,71.20
2017-08-19T09:43:08.380Z,71.20
2017-08-19T09:45:35.103Z,71.20
2017-08-19T09:48:01.845Z,71.20
2017-08-19T09:50:28.550Z,71.20
2017-08-19T09:52:55.270Z,71.20
2017-08-19T09:55:21.999Z,71.20
2017-08-19T09:57:48.694Z,71.20
2017-08-19T10:00:15.423Z,71.20
2017-08-19T10:02:42.123Z,71.30
2017-08-19T10:07:57.423Z,71.20
2017-08-19T10:10:24.156Z,71.30
2017-08-19T10:12:50.862Z,71.20
2017-08-19T10:15:17.583Z,71.20
2017-08-19T10:17:44.285Z,71.40
2017-08-19T10:20:11.011Z,71.20
2017-08-19T10:22:37.737Z,71.20
2017-08-19T10:25:04.487Z,71.30
2017-08-19T10:27:31.190Z,71.20
2017-08-19T10:29:57.922Z,70.90
2017-08-19T10:32:24.634Z,71.20
2017-08-19T10:34:51.401Z,71.00
2017-08-19T10:37:18.110Z,71.00
2017-08-19T10:39:44.826Z,71.20
2017-08-19T10:42:11.547Z,70.80
2017-08-19T10:44:38.246Z,70.70
2017-08-19T10:47:04.975Z,70.80
2017-08-19T10:49:31.723Z,71.20
2017-08-19T10:51:58.458Z,71.20
2017-08-19T10:54:25.915Z,71.20
2017-08-19T10:56:52.630Z,71.20
2017-08-19T10:59:19.399Z,71.20
2017-08-19T11:01:46.103Z,70.80
2017-08-19T11:04:12.866Z,71.20
2017-08-19T11:06:39.581Z,70.20
2017-08-19T11:09:06.331Z,70.90
2017-08-19T11:11:33.028Z,70.60
2017-08-19T11:13:59.742Z,71.00
2017-08-19T11:16:26.424Z,71.20
2017-08-19T11:18:53.182Z,71.20
2017-08-19T11:21:19.882Z,71.20
2017-08-19T11:23:46.602Z,71.20
2017-08-19T11:26:13.338Z,71.20
2017-08-19T11:28:40.061Z,71.20
2017-08-19T11:31:06.798Z,71.20
2017-08-19T11:33:33.490Z,71.30
2017-08-19T11:36:02.914Z,71.30
2017-08-19T11:38:30.154Z,71.20
2017-08-19T11:40:56.931Z,71.40
2017-08-19T11:43:23.622Z,71.40
2017-08-19T11:45:50.354Z,71.40
2017-08-19T11:48:17.054Z,71.40
2017-08-19T11:50:43.750Z,71.30
2017-08-19T11:53:11.389Z,71.30
2017-08-19T11:55:38.106Z,71.30
2017-08-19T11:58:04.830Z,71.40
2017-08-19T12:00:31.523Z,71.30
2017-08-19T12:02:58.261Z,71.30
2017-08-19T12:05:24.958Z,71.50
2017-08-19T12:07:51.692Z,71.40
2017-08-19T12:10:18.395Z,71.50
2017-08-19T12:12:45.126Z,71.50
2017-08-19T12:15:11.874Z,71.50
2017-08-19T12:17:38.558Z,71.50
2017-08-19T12:20:05.332Z,71.60
